Time;durP1;ratioP1;P1;durP2;ratioP2;P2;SDS_P1;SDS_P2;PMS_P1;PMS_P2;Temp;Humidity;BMP_temperature;BMP_pressure;BME280_temperature;BME280_humidity;BME280_pressure;Samples;Min_cycle;Max_cycle;Signal;HPM_P1;HPM_P2
2023/01/21 00:00:23;;;;;;;3.13;2.13;;;;;;;;;;5046585;28;20089;-61
2023/01/21 00:02:50;;;;;;;13.03;2.63;;;;;;;;;;5049666;28;20033;-61
2023/01/21 00:05:16;;;;;;;8.00;1.80;;;;;;;;;;5048323;28;20021;-61
2023/01/21 00:07:43;;;;;;;25.20;2.23;;;;;;;;;;5051356;28;20540;-61
2023/01/21 00:10:10;;;;;;;5.30;2.20;;;;;;;;;;5052097;28;20507;-61
2023/01/21 00:12:37;;;;;;;16.13;4.10;;;;;;;;;;5051837;28;20167;-61
2023/01/21 00:15:04;;;;;;;4.63;2.80;;;;;;;;;;5048399;28;20055;-61
2023/01/21 00:17:34;;;;;;;3.57;1.97;;;;;;;;;;5047776;28;20021;-61
2023/01/21 00:20:02;;;;;;;4.97;2.50;;;;;;;;;;5050594;28;20035;-62
2023/01/21 00:22:29;;;;;;;4.70;1.80;;;;;;;;;;5050446;28;20029;-60
2023/01/21 00:24:55;;;;;;;4.10;2.33;;;;;;;;;;5053121;28;20029;-61
2023/01/21 00:27:22;;;;;;;3.67;2.07;;;;;;;;;;5055816;28;20052;-61
2023/01/21 00:29:49;;;;;;;8.40;2.33;;;;;;;;;;5055870;28;20021;-61
2023/01/21 00:32:15;;;;;;;3.47;2.23;;;;;;;;;;5055732;28;20059;-61
2023/01/21 00:34:42;;;;;;;3.83;2.00;;;;;;;;;;5053986;28;20021;-61
2023/01/21 00:37:09;;;;;;;3.20;2.23;;;;;;;;;;5032764;28;20526;-61
2023/01/21 00:39:35;;;;;;;2.60;2.10;;;;;;;;;;5030430;28;20380;-61
2023/01/21 00:42:03;;;;;;;3.77;2.00;;;;;;;;;;5030417;28;20508;-61
2023/01/21 00:44:30;;;;;;;4.13;1.87;;;;;;;;;;5031996;28;20077;-61
2023/01/21 00:46:56;;;;;;;15.10;2.23;;;;;;;;;;5046682;28;20108;-60
2023/01/21 00:49:23;;;;;;;7.23;2.53;;;;;;;;;;5035532;28;20380;-61
2023/01/21 00:51:50;;;;;;;4.00;2.37;;;;;;;;;;5035571;28;20021;-61
2023/01/21 00:54:16;;;;;;;2.23;1.37;;;;;;;;;;5035529;28;20025;-61
2023/01/21 00:56:43;;;;;;;6.90;1.70;;;;;;;;;;5035311;28;20033;-61
2023/01/21 00:59:10;;;;;;;11.63;2.57;;;;;;;;;;5033095;28;20107;-61
2023/01/21 01:01:37;;;;;;;5.53;2.73;;;;;;;;;;5049264;28;20086;-61
2023/01/21 01:04:05;;;;;;;4.33;1.43;;;;;;;;;;5049582;28;20402;-61
2023/01/21 01:06:32;;;;;;;3.37;2.17;;;;;;;;;;5037093;28;20053;-61
2023/01/21 01:08:58;;;;;;;3.93;2.07;;;;;;;;;;5041954;28;20076;-61
2023/01/21 01:11:26;;;;;;;3.10;2.30;;;;;;;;;;5054993;28;20467;-61
2023/01/21 01:13:54;;;;;;;3.10;2.00;;;;;;;;;;5054725;28;20029;-60
2023/01/21 01:16:21;;;;;;;15.43;2.73;;;;;;;;;;5037520;28;20388;-60
2023/01/21 01:18:48;;;;;;;3.00;1.80;;;;;;;;;;5035035;28;20029;-60
2023/01/21 01:21:16;;;;;;;6.83;2.97;;;;;;;;;;5033885;28;20078;-60
2023/01/21 01:23:43;;;;;;;35.63;2.80;;;;;;;;;;5029595;28;20033;-60
2023/01/21 01:26:11;;;;;;;7.67;2.80;;;;;;;;;;5029625;28;20083;-61
2023/01/21 01:28:38;;;;;;;3.57;2.17;;;;;;;;;;5028768;28;20022;-60
2023/01/21 01:31:06;;;;;;;3.10;2.30;;;;;;;;;;5029149;28;20037;-60
2023/01/21 01:33:33;;;;;;;6.57;3.10;;;;;;;;;;5034751;28;20025;-61
2023/01/21 01:36:05;;;;;;;1.83;1.23;;;;;;;;;;5034608;28;20022;-60
2023/01/21 01:38:33;;;;;;;20.07;3.23;;;;;;;;;;5034645;28;20053;-60
2023/01/21 01:41:00;;;;;;;7.53;2.40;;;;;;;;;;5034622;28;20392;-60
2023/01/21 01:43:47;;;;;;;10.47;2.20;;;;;;;;;;5033665;28;20116;-60
2023/01/21 01:46:14;;;;;;;6.27;2.07;;;;;;;;;;5043909;28;20079;-60
2023/01/21 01:48:42;;;;;;;4.73;2.60;;;;;;;;;;5047472;28;20039;-60
2023/01/21 01:51:09;;;;;;;4.37;2.37;;;;;;;;;;5043094;28;20531;-60
2023/01/21 01:53:37;;;;;;;2.50;1.50;;;;;;;;;;5033200;28;20033;-60
2023/01/21 01:56:04;;;;;;;25.30;2.57;;;;;;;;;;5034328;28;20056;-60
2023/01/21 01:58:32;;;;;;;6.77;2.13;;;;;;;;;;5033764;28;20030;-60
2023/01/21 02:00:59;;;;;;;3.57;2.43;;;;;;;;;;5034239;28;20079;-60
2023/01/21 02:06:26;;;;;;;5.67;3.30;;;;;;;;;;5026485;28;20479;-60
2023/01/21 02:08:53;;;;;;;16.87;4.17;;;;;;;;;;5048430;28;20029;-60
2023/01/21 02:11:20;;;;;;;8.07;3.43;;;;;;;;;;5048797;28;20033;-60
2023/01/21 02:13:57;;;;;;;3.63;2.30;;;;;;;;;;5048680;28;20131;-60
2023/01/21 02:16:42;;;;;;;3.70;2.17;;;;;;;;;;5049942;28;20055;-60
2023/01/21 02:19:15;;;;;;;11.48;2.88;;;;;;;;;;5053576;28;20021;-60
2023/01/21 02:21:54;;;;;;;7.47;2.30;;;;;;;;;;5053877;28;20025;-60
2023/01/21 02:24:26;;;;;;;9.73;3.00;;;;;;;;;;5053534;28;20032;-60
2023/01/21 02:26:53;;;;;;;5.50;2.03;;;;;;;;;;5053773;28;20039;-61
2023/01/21 02:29:20;;;;;;;3.53;2.37;;;;;;;;;;5050981;28;20043;-60
2023/01/21 02:32:06;;;;;;;12.83;2.63;;;;;;;;;;5048477;28;20013;-60
2023/01/21 02:34:39;;;;;;;5.13;2.70;;;;;;;;;;5048217;28;20530;-60
2023/01/21 02:37:10;;;;;;;7.50;3.30;;;;;;;;;;5042536;28;20025;-60
2023/01/21 02:39:49;;;;;;;6.60;2.80;;;;;;;;;;5040305;28;20032;-60
2023/01/21 02:42:30;;;;;;;8.00;2.57;;;;;;;;;;5052977;28;20021;-60
2023/01/21 02:44:56;;;;;;;5.97;3.03;;;;;;;;;;5053231;28;20215;-60
2023/01/21 02:47:23;;;;;;;3.63;2.17;;;;;;;;;;5053292;28;20032;-60
2023/01/21 02:49:55;;;;;;;4.37;2.83;;;;;;;;;;5052125;28;20498;-61
2023/01/21 02:52:25;;;;;;;3.83;2.47;;;;;;;;;;5047557;28;20594;-60
2023/01/21 02:54:53;;;;;;;2.60;1.67;;;;;;;;;;5048218;28;20101;-60
2023/01/21 02:57:24;;;;;;;6.37;3.00;;;;;;;;;;5048024;28;20025;-60
2023/01/21 02:59:53;;;;;;;12.50;7.63;;;;;;;;;;5047727;28;20043;-60
2023/01/21 03:02:28;;;;;;;10.57;5.10;;;;;;;;;;5050805;28;20071;-60
2023/01/21 03:05:07;;;;;;;5.67;3.30;;;;;;;;;;5053008;28;20036;-60
2023/01/21 03:07:35;;;;;;;6.80;4.80;;;;;;;;;;5052840;28;20037;-59
2023/01/21 03:10:06;;;;;;;27.33;3.33;;;;;;;;;;5053021;28;20021;-60
2023/01/21 03:12:45;;;;;;;5.73;2.70;;;;;;;;;;5052927;28;20025;-60
2023/01/21 03:18:06;;;;;;;4.87;3.27;;;;;;;;;;5047920;28;20048;-62
2023/01/21 03:21:08;;;;;;;6.97;3.47;;;;;;;;;;5047615;28;20087;-60
2023/01/21 03:23:47;;;;;;;3.57;2.27;;;;;;;;;;4966610;28;20066;-59
2023/01/21 03:26:14;;;;;;;22.80;3.90;;;;;;;;;;5025747;28;20033;-59
2023/01/21 03:28:44;;;;;;;5.40;2.37;;;;;;;;;;5032500;28;20026;-61
2023/01/21 03:31:18;;;;;;;3.13;1.97;;;;;;;;;;5032701;28;20055;-60
2023/01/21 03:33:47;;;;;;;11.13;3.13;;;;;;;;;;5032343;28;20025;-59
2023/01/21 03:36:23;;;;;;;4.33;3.00;;;;;;;;;;5044059;28;20060;-60
2023/01/21 03:38:51;;;;;;;3.60;2.60;;;;;;;;;;5047331;28;20044;-60
2023/01/21 03:41:21;;;;;;;10.87;3.10;;;;;;;;;;5047014;28;20067;-59
2023/01/21 03:43:48;;;;;;;9.90;2.87;;;;;;;;;;5047119;28;20033;-59
2023/01/21 03:46:24;;;;;;;6.07;3.40;;;;;;;;;;5048195;28;20032;-59
2023/01/21 03:49:11;;;;;;;4.63;2.87;;;;;;;;;;5052398;28;20375;-59
2023/01/21 03:51:41;;;;;;;6.20;2.43;;;;;;;;;;5038058;28;20057;-59
2023/01/21 03:54:07;;;;;;;3.40;2.80;;;;;;;;;;5052095;28;20032;-59
2023/01/21 03:56:34;;;;;;;4.73;2.67;;;;;;;;;;5052190;28;20059;-60
2023/01/21 03:59:01;;;;;;;6.47;3.20;;;;;;;;;;5050490;28;20479;-59
2023/01/21 04:01:27;;;;;;;3.87;2.17;;;;;;;;;;5046952;28;20031;-60
2023/01/21 04:03:54;;;;;;;49.20;2.77;;;;;;;;;;5047011;28;20033;-59
2023/01/21 04:06:22;;;;;;;5.60;2.87;;;;;;;;;;5033151;28;20037;-59
2023/01/21 04:08:49;;;;;;;4.87;2.90;;;;;;;;;;5027853;28;20379;-59
2023/01/21 04:11:16;;;;;;;5.20;3.13;;;;;;;;;;5032402;28;20128;-58
2023/01/21 04:13:42;;;;;;;6.83;2.87;;;;;;;;;;5032204;28;20029;-60
2023/01/21 04:16:09;;;;;;;3.37;2.07;;;;;;;;;;5032055;28;20025;-59
2023/01/21 04:18:36;;;;;;;11.77;3.20;;;;;;;;;;5032084;28;20427;-59
2023/01/21 04:21:03;;;;;;;4.10;2.93;;;;;;;;;;5031750;28;20018;-60
2023/01/21 04:23:29;;;;;;;17.57;2.57;;;;;;;;;;5026437;28;20053;-60
2023/01/21 04:25:56;;;;;;;2.67;2.00;;;;;;;;;;5027081;28;20065;-59
2023/01/21 04:28:23;;;;;;;4.07;2.17;;;;;;;;;;5026961;28;20030;-60
2023/01/21 04:30:50;;;;;;;3.33;1.97;;;;;;;;;;5026774;28;20472;-59
2023/01/21 04:33:16;;;;;;;19.57;2.80;;;;;;;;;;5031629;28;20503;-59
2023/01/21 04:35:43;;;;;;;4.80;2.27;;;;;;;;;;5039555;28;20060;-59
2023/01/21 04:38:10;;;;;;;5.63;3.10;;;;;;;;;;5051761;28;20037;-59
2023/01/21 04:40:37;;;;;;;2.53;1.70;;;;;;;;;;5051343;28;20420;-59
2023/01/21 04:43:04;;;;;;;2.47;1.67;;;;;;;;;;5051658;28;20029;-59
2023/01/21 04:45:30;;;;;;;2.13;1.40;;;;;;;;;;5047309;28;20124;-59
2023/01/21 04:47:57;;;;;;;8.20;2.30;;;;;;;;;;5046575;28;20078;-59
2023/01/21 04:50:25;;;;;;;2.67;1.60;;;;;;;;;;5046737;28;20103;-59
2023/01/21 04:52:51;;;;;;;3.03;2.10;;;;;;;;;;5046639;28;20025;-59
2023/01/21 04:55:18;;;;;;;5.53;2.03;;;;;;;;;;5050215;28;20029;-59
2023/01/21 04:57:45;;;;;;;4.73;2.47;;;;;;;;;;5051220;28;20032;-58
2023/01/21 05:00:12;;;;;;;2.83;1.63;;;;;;;;;;5050372;28;20025;-59
2023/01/21 05:02:38;;;;;;;7.63;2.37;;;;;;;;;;5042589;28;20036;-58
2023/01/21 05:05:05;;;;;;;3.87;2.17;;;;;;;;;;5034564;28;20029;-58
2023/01/21 05:07:32;;;;;;;2.67;1.80;;;;;;;;;;5032950;28;20061;-58
2023/01/21 05:09:59;;;;;;;4.37;2.70;;;;;;;;;;5030142;28;20450;-59
2023/01/21 05:12:26;;;;;;;4.80;2.43;;;;;;;;;;5027863;28;20503;-59
2023/01/21 05:14:53;;;;;;;4.50;2.37;;;;;;;;;;5030305;28;20021;-59
2023/01/21 05:17:20;;;;;;;2.03;1.83;;;;;;;;;;5032450;28;20110;-58
2023/01/21 05:19:47;;;;;;;3.00;2.10;;;;;;;;;;5035407;28;20076;-58
2023/01/21 05:22:13;;;;;;;5.30;2.63;;;;;;;;;;5035225;28;20053;-59
2023/01/21 05:24:40;;;;;;;2.13;1.57;;;;;;;;;;5036458;28;20037;-58
2023/01/21 05:27:07;;;;;;;5.87;2.17;;;;;;;;;;5035287;28;20419;-58
2023/01/21 05:29:33;;;;;;;4.83;2.67;;;;;;;;;;5035146;28;20144;-60
2023/01/21 05:32:00;;;;;;;2.63;2.17;;;;;;;;;;5035522;28;20104;-61
2023/01/21 05:34:27;;;;;;;4.27;2.60;;;;;;;;;;5039948;28;20033;-59
2023/01/21 05:36:56;;;;;;;1.50;1.27;;;;;;;;;;5160145;22;20384;-67
2023/01/21 05:39:23;;;;;;;3.27;2.30;;;;;;;;;;5042270;28;20036;-67
2023/01/21 05:41:50;;;;;;;5.67;2.60;;;;;;;;;;5035404;28;20021;-66
2023/01/21 05:44:16;;;;;;;3.80;2.77;;;;;;;;;;5035364;28;20112;-65
2023/01/21 05:46:43;;;;;;;3.53;2.53;;;;;;;;;;5035567;28;20017;-66
2023/01/21 05:49:10;;;;;;;4.43;2.30;;;;;;;;;;5032005;28;20116;-66
2023/01/21 05:51:36;;;;;;;3.73;2.40;;;;;;;;;;5030121;28;20056;-67
2023/01/21 05:54:03;;;;;;;1.63;1.33;;;;;;;;;;5030180;28;20021;-66
2023/01/21 05:56:30;;;;;;;2.87;2.27;;;;;;;;;;5030054;28;20471;-66
2023/01/21 05:58:56;;;;;;;3.63;2.53;;;;;;;;;;5032114;28;20032;-66
2023/01/21 06:01:23;;;;;;;3.53;1.90;;;;;;;;;;5035236;28;20017;-66
2023/01/21 06:03:50;;;;;;;2.20;1.80;;;;;;;;;;5035035;28;20128;-66
2023/01/21 06:06:16;;;;;;;4.03;2.77;;;;;;;;;;5035141;28;20072;-66
2023/01/21 06:08:43;;;;;;;3.50;2.13;;;;;;;;;;5034714;28;20030;-66
2023/01/21 06:11:10;;;;;;;2.10;1.70;;;;;;;;;;5032577;28;20565;-66
2023/01/21 06:13:36;;;;;;;1.00;0.90;;;;;;;;;;5029724;28;20022;-66
2023/01/21 06:16:03;;;;;;;3.17;2.47;;;;;;;;;;5029214;28;20030;-66
2023/01/21 06:18:30;;;;;;;3.27;2.27;;;;;;;;;;5029506;28;20022;-67
2023/01/21 06:21:00;;;;;;;3.30;2.60;;;;;;;;;;5031180;28;20025;-66
2023/01/21 06:23:27;;;;;;;10.87;2.63;;;;;;;;;;5034654;28;20026;-66
2023/01/21 06:25:53;;;;;;;2.23;1.60;;;;;;;;;;5034702;28;20030;-66
2023/01/21 06:28:20;;;;;;;11.90;3.20;;;;;;;;;;5034554;28;20083;-66
2023/01/21 06:30:47;;;;;;;10.23;2.93;;;;;;;;;;5014863;28;20022;-66
2023/01/21 06:33:13;;;;;;;1.60;1.50;;;;;;;;;;5012960;28;20061;-67
2023/01/21 06:35:40;;;;;;;3.73;2.13;;;;;;;;;;5009571;28;20056;-67
2023/01/21 06:38:07;;;;;;;3.97;2.80;;;;;;;;;;5009364;28;20038;-67
2023/01/21 06:40:33;;;;;;;3.47;2.23;;;;;;;;;;5027382;28;20029;-66
2023/01/21 06:43:00;;;;;;;2.10;1.73;;;;;;;;;;5030029;28;20052;-66
2023/01/21 06:45:27;;;;;;;4.60;2.93;;;;;;;;;;5034502;28;20024;-66
2023/01/21 06:47:54;;;;;;;3.57;2.60;;;;;;;;;;5034365;28;20074;-66
2023/01/21 06:50:20;;;;;;;2.93;1.93;;;;;;;;;;5033884;28;20025;-66
2023/01/21 06:52:48;;;;;;;8.20;1.40;;;;;;;;;;5034343;28;20502;-66
2023/01/21 06:55:15;;;;;;;2.33;2.07;;;;;;;;;;5032697;28;20036;-66
2023/01/21 06:57:42;;;;;;;2.27;1.77;;;;;;;;;;5028842;28;20068;-66
2023/01/21 07:00:10;;;;;;;3.13;2.47;;;;;;;;;;5028617;28;20030;-66
2023/01/21 07:02:36;;;;;;;2.37;2.03;;;;;;;;;;5028669;28;20104;-66
2023/01/21 07:05:04;;;;;;;3.43;2.63;;;;;;;;;;5029421;28;20040;-66
2023/01/21 07:07:30;;;;;;;7.47;3.97;;;;;;;;;;5034052;28;20063;-66
2023/01/21 07:09:57;;;;;;;3.13;2.50;;;;;;;;;;5033621;28;20032;-66
2023/01/21 07:12:24;;;;;;;2.83;2.20;;;;;;;;;;5033859;28;20033;-66
2023/01/21 07:14:50;;;;;;;3.17;2.57;;;;;;;;;;5033812;28;20524;-66
2023/01/21 07:17:18;;;;;;;3.40;2.43;;;;;;;;;;5032792;28;20380;-66
2023/01/21 07:19:44;;;;;;;3.23;2.40;;;;;;;;;;5028148;28;20032;-66
2023/01/21 07:22:11;;;;;;;4.70;2.90;;;;;;;;;;5028582;28;20025;-66
2023/01/21 07:24:38;;;;;;;4.20;3.33;;;;;;;;;;5028441;28;20060;-66
2023/01/21 07:27:05;;;;;;;5.57;3.17;;;;;;;;;;5027593;28;20053;-67
2023/01/21 07:29:31;;;;;;;9.03;3.37;;;;;;;;;;5033324;28;20475;-66
2023/01/21 07:31:58;;;;;;;6.00;3.77;;;;;;;;;;5033544;28;20104;-66
2023/01/21 07:34:25;;;;;;;3.67;2.90;;;;;;;;;;5033653;28;20406;-66
2023/01/21 07:36:51;;;;;;;7.50;3.50;;;;;;;;;;5033647;28;20026;-66
2023/01/21 07:39:18;;;;;;;4.57;3.73;;;;;;;;;;5032529;28;20040;-66
2023/01/21 07:41:45;;;;;;;7.47;2.63;;;;;;;;;;5028300;28;20021;-66
2023/01/21 07:44:12;;;;;;;4.50;2.70;;;;;;;;;;5028065;28;20120;-66
2023/01/21 07:46:38;;;;;;;3.90;2.67;;;;;;;;;;5028202;28;20029;-66
2023/01/21 07:49:05;;;;;;;5.47;2.20;;;;;;;;;;5027834;28;20479;-66
2023/01/21 07:51:32;;;;;;;5.10;2.93;;;;;;;;;;5033051;28;20121;-66
2023/01/21 07:53:58;;;;;;;2.03;1.67;;;;;;;;;;5033337;28;20119;-66
2023/01/21 07:56:26;;;;;;;3.37;1.60;;;;;;;;;;5033431;28;20083;-66
2023/01/21 07:58:52;;;;;;;4.33;2.87;;;;;;;;;;5032902;28;20109;-66
2023/01/21 08:01:19;;;;;;;4.60;2.40;;;;;;;;;;5033221;28;20103;-66
2023/01/21 08:03:46;;;;;;;2.17;1.77;;;;;;;;;;5027929;28;20295;-66
2023/01/21 08:06:12;;;;;;;3.23;2.40;;;;;;;;;;5027926;28;20254;-66
2023/01/21 08:08:39;;;;;;;4.73;2.83;;;;;;;;;;5027750;28;20021;-66
2023/01/21 08:11:06;;;;;;;5.73;3.03;;;;;;;;;;5008037;28;20144;-66
2023/01/21 08:13:32;;;;;;;3.83;2.80;;;;;;;;;;5012424;28;20757;-66
2023/01/21 08:15:59;;;;;;;5.77;2.97;;;;;;;;;;5013293;28;20256;-66
2023/01/21 08:18:26;;;;;;;2.93;2.10;;;;;;;;;;5013256;28;20354;-66
2023/01/21 08:20:56;;;;;;;4.53;2.00;;;;;;;;;;5031370;28;20037;-66
2023/01/21 08:23:23;;;;;;;3.37;2.50;;;;;;;;;;5032916;28;20293;-66
2023/01/21 08:25:50;;;;;;;9.33;2.57;;;;;;;;;;5027991;28;20270;-66
2023/01/21 08:28:17;;;;;;;5.57;3.67;;;;;;;;;;5027894;28;20265;-66
2023/01/21 08:30:43;;;;;;;2.67;2.33;;;;;;;;;;5027423;28;20301;-66
2023/01/21 08:33:10;;;;;;;3.33;1.83;;;;;;;;;;5027725;28;20262;-66
2023/01/21 08:35:37;;;;;;;3.27;2.07;;;;;;;;;;5031462;28;20337;-65
2023/01/21 08:38:04;;;;;;;1.37;1.27;;;;;;;;;;5032853;28;20626;-66
2023/01/21 08:40:30;;;;;;;3.97;2.83;;;;;;;;;;5036457;28;20270;-65
2023/01/21 08:42:58;;;;;;;2.90;2.30;;;;;;;;;;5036628;28;20251;-66
2023/01/21 08:45:25;;;;;;;1.67;1.50;;;;;;;;;;5036664;28;20317;-65
2023/01/21 08:47:52;;;;;;;3.80;1.77;;;;;;;;;;5032320;28;21065;-66
2023/01/21 08:50:19;;;;;;;4.07;2.47;;;;;;;;;;5031033;28;20354;-65
2023/01/21 08:52:55;;;;;;;2.13;1.87;;;;;;;;;;5031315;28;20259;-65
2023/01/21 08:55:25;;;;;;;3.43;2.13;;;;;;;;;;5030996;28;20266;-66
2023/01/21 08:57:53;;;;;;;6.90;3.20;;;;;;;;;;5035031;28;20294;-65
2023/01/21 09:00:21;;;;;;;5.33;3.07;;;;;;;;;;5036428;28;20591;-65
2023/01/21 09:02:47;;;;;;;4.80;2.07;;;;;;;;;;5036316;28;20308;-66
2023/01/21 09:05:14;;;;;;;2.80;2.10;;;;;;;;;;5035764;28;20290;-65
2023/01/21 09:07:41;;;;;;;4.93;2.73;;;;;;;;;;5036261;28;20262;-65
2023/01/21 09:10:08;;;;;;;2.73;1.30;;;;;;;;;;5031777;28;20270;-65
2023/01/21 09:12:35;;;;;;;4.77;2.80;;;;;;;;;;5030749;28;20291;-65
2023/01/21 09:15:01;;;;;;;2.33;1.73;;;;;;;;;;5030703;28;20350;-65
2023/01/21 09:17:28;;;;;;;1.90;1.63;;;;;;;;;;5030675;28;20263;-66
2023/01/21 09:19:55;;;;;;;4.70;2.50;;;;;;;;;;5034585;28;20258;-65
2023/01/21 09:22:21;;;;;;;2.90;2.60;;;;;;;;;;5035984;28;20271;-65
2023/01/21 09:24:48;;;;;;;3.17;2.60;;;;;;;;;;5035609;28;20290;-65
2023/01/21 09:27:15;;;;;;;5.63;2.50;;;;;;;;;;5035773;28;20263;-65
2023/01/21 09:29:41;;;;;;;2.23;1.40;;;;;;;;;;5035888;28;20265;-65
2023/01/21 09:32:08;;;;;;;4.63;3.70;;;;;;;;;;5031967;28;20649;-65
2023/01/21 09:34:35;;;;;;;3.63;2.57;;;;;;;;;;5030268;28;20360;-65
2023/01/21 09:37:03;;;;;;;2.27;1.93;;;;;;;;;;5030582;28;20271;-65
2023/01/21 09:39:30;;;;;;;2.90;2.60;;;;;;;;;;5030376;28;20258;-65
2023/01/21 09:41:57;;;;;;;2.33;1.73;;;;;;;;;;5033490;28;20348;-65
2023/01/21 09:44:24;;;;;;;4.97;2.60;;;;;;;;;;5035218;28;20289;-65
2023/01/21 09:47:06;;;;;;;3.73;1.70;;;;;;;;;;5035710;28;20316;-65
2023/01/21 09:49:37;;;;;;;2.30;1.60;;;;;;;;;;5035124;28;20271;-65
2023/01/21 09:52:22;;;;;;;2.60;2.00;;;;;;;;;;5034701;28;20271;-65
2023/01/21 09:54:49;;;;;;;3.97;2.33;;;;;;;;;;5030626;28;20728;-65
2023/01/21 09:57:21;;;;;;;1.57;1.30;;;;;;;;;;5030178;28;20033;-65
2023/01/21 09:59:54;;;;;;;2.03;1.73;;;;;;;;;;5029887;28;20259;-65
2023/01/21 10:02:34;;;;;;;2.77;2.10;;;;;;;;;;5029274;28;20274;-65
2023/01/21 10:05:07;;;;;;;2.43;1.57;;;;;;;;;;5034734;28;20369;-65
2023/01/21 10:07:37;;;;;;;2.50;1.83;;;;;;;;;;5035081;28;20255;-65
2023/01/21 10:10:04;;;;;;;10.57;2.27;;;;;;;;;;5035047;28;20254;-65
2023/01/21 10:12:33;;;;;;;4.13;2.23;;;;;;;;;;5034692;28;20263;-65
2023/01/21 10:15:09;;;;;;;4.27;1.80;;;;;;;;;;5034780;28;20259;-66
2023/01/21 10:17:42;;;;;;;2.63;2.03;;;;;;;;;;5029688;28;20262;-65
2023/01/21 10:20:18;;;;;;;2.87;2.40;;;;;;;;;;5029776;28;20270;-65
2023/01/21 10:22:48;;;;;;;2.13;1.90;;;;;;;;;;5009924;28;20267;-65
2023/01/21 10:25:31;;;;;;;3.27;2.60;;;;;;;;;;5010127;28;20320;-66
2023/01/21 10:28:11;;;;;;;2.40;1.80;;;;;;;;;;5014891;28;20263;-65
2023/01/21 10:30:39;;;;;;;1.20;1.10;;;;;;;;;;5022503;28;20270;-65
2023/01/21 10:33:06;;;;;;;2.17;1.43;;;;;;;;;;5034522;28;20316;-66
2023/01/21 10:35:48;;;;;;;6.47;2.87;;;;;;;;;;5034553;28;20255;-65
2023/01/21 10:38:18;;;;;;;4.30;2.43;;;;;;;;;;5031894;28;20282;-65
2023/01/21 10:40:54;;;;;;;18.40;3.57;;;;;;;;;;5028854;28;20271;-65
2023/01/21 10:43:31;;;;;;;3.13;2.03;;;;;;;;;;5029051;28;20258;-65
2023/01/21 10:46:04;;;;;;;3.80;1.67;;;;;;;;;;5029149;28;20637;-65
2023/01/21 10:48:38;;;;;;;1.23;1.13;;;;;;;;;;5031822;28;20269;-65
2023/01/21 10:51:11;;;;;;;2.80;2.30;;;;;;;;;;5034023;28;20259;-65
2023/01/21 10:53:44;;;;;;;2.60;1.80;;;;;;;;;;5034395;28;20243;-65
2023/01/21 10:56:17;;;;;;;3.50;2.27;;;;;;;;;;5034083;28;20741;-65
2023/01/21 10:58:52;;;;;;;2.90;1.87;;;;;;;;;;5034175;28;20267;-65
2023/01/21 11:01:39;;;;;;;0.85;0.82;;;;;;;;;;5029313;28;20353;-66
2023/01/21 11:04:26;;;;;;;5.13;2.03;;;;;;;;;;5028698;28;20124;-66
2023/01/21 11:07:00;;;;;;;4.03;2.87;;;;;;;;;;5028697;28;20259;-65
2023/01/21 11:09:30;;;;;;;3.40;1.50;;;;;;;;;;5028586;28;20277;-65
2023/01/21 11:11:56;;;;;;;2.10;1.87;;;;;;;;;;5033778;28;20282;-65
2023/01/21 11:14:26;;;;;;;1.67;1.47;;;;;;;;;;5033886;28;20247;-65
2023/01/21 11:16:53;;;;;;;2.93;2.10;;;;;;;;;;5033756;28;20254;-65
2023/01/21 11:19:25;;;;;;;6.50;3.00;;;;;;;;;;5033642;28;20278;-65
2023/01/21 11:22:03;;;;;;;5.63;2.20;;;;;;;;;;5033259;28;20412;-65
2023/01/21 11:24:31;;;;;;;3.00;2.20;;;;;;;;;;5028338;28;20760;-66
2023/01/21 11:27:01;;;;;;;2.57;2.10;;;;;;;;;;5028510;28;20297;-65
2023/01/21 11:29:39;;;;;;;2.23;1.67;;;;;;;;;;5028128;28;20295;-65
2023/01/21 11:32:13;;;;;;;2.93;2.03;;;;;;;;;;5029253;28;20768;-65
2023/01/21 11:34:43;;;;;;;3.27;2.33;;;;;;;;;;5033692;28;20310;-65
2023/01/21 11:37:16;;;;;;;3.40;2.50;;;;;;;;;;5033403;28;20350;-65
2023/01/21 11:39:51;;;;;;;2.67;2.13;;;;;;;;;;5032985;28;20271;-65
2023/01/21 11:42:18;;;;;;;12.83;1.67;;;;;;;;;;5033504;28;20803;-65
2023/01/21 11:44:52;;;;;;;2.23;1.87;;;;;;;;;;5031289;28;20693;-65
2023/01/21 11:47:29;;;;;;;3.42;2.70;;;;;;;;;;5028185;28;20255;-65
2023/01/21 11:50:01;;;;;;;2.57;1.83;;;;;;;;;;5027755;28;20459;-65
2023/01/21 11:52:28;;;;;;;4.87;3.13;;;;;;;;;;5027623;28;20293;-65
2023/01/21 11:54:55;;;;;;;3.80;2.63;;;;;;;;;;5030302;28;20820;-65
2023/01/21 11:57:26;;;;;;;1.87;1.73;;;;;;;;;;5033166;28;20278;-65
2023/01/21 11:59:55;;;;;;;3.17;2.50;;;;;;;;;;5032810;28;20274;-65
2023/01/21 12:02:29;;;;;;;5.03;3.23;;;;;;;;;;5033221;28;20305;-65
2023/01/21 12:05:01;;;;;;;6.00;2.90;;;;;;;;;;5033185;28;20279;-65
2023/01/21 12:07:33;;;;;;;3.10;2.43;;;;;;;;;;5029999;28;20021;-65
2023/01/21 12:10:08;;;;;;;3.93;2.63;;;;;;;;;;5027403;28;20263;-65
2023/01/21 12:12:40;;;;;;;2.42;1.67;;;;;;;;;;5027882;28;20265;-65
2023/01/21 12:15:15;;;;;;;2.13;1.63;;;;;;;;;;5031553;28;20068;-66
2023/01/21 12:17:50;;;;;;;3.47;2.38;;;;;;;;;;5035468;28;20345;-65
2023/01/21 12:20:17;;;;;;;3.23;2.87;;;;;;;;;;5036784;28;20026;-65
2023/01/21 12:22:44;;;;;;;8.30;3.73;;;;;;;;;;5037003;28;20263;-65
2023/01/21 12:25:19;;;;;;;1.90;1.57;;;;;;;;;;5036867;28;20341;-65
2023/01/21 12:28:03;;;;;;;1.90;1.40;;;;;;;;;;5037007;28;20270;-65
2023/01/21 12:30:35;;;;;;;2.77;1.67;;;;;;;;;;5031541;28;20321;-65
2023/01/21 12:33:07;;;;;;;3.13;2.43;;;;;;;;;;5031641;28;20663;-65
2023/01/21 12:35:45;;;;;;;5.80;3.30;;;;;;;;;;5031581;28;20776;-65
2023/01/21 12:38:30;;;;;;;3.40;2.70;;;;;;;;;;5031298;28;20617;-65
2023/01/21 12:40:57;;;;;;;2.40;2.15;;;;;;;;;;5016995;28;20290;-65
2023/01/21 12:43:32;;;;;;;1.93;1.73;;;;;;;;;;5016848;28;20022;-65
2023/01/21 12:46:04;;;;;;;4.75;2.70;;;;;;;;;;5016892;28;20278;-64
2023/01/21 12:48:37;;;;;;;5.77;3.70;;;;;;;;;;5016788;28;20029;-66
2023/01/21 12:51:39;;;;;;;6.43;4.00;;;;;;;;;;5015114;28;20255;-65
2023/01/21 12:54:23;;;;;;;2.47;2.20;;;;;;;;;;4950571;29;20814;-65
2023/01/21 12:57:16;;;;;;;2.47;2.17;;;;;;;;;;5006808;28;20259;-65
2023/01/21 12:59:46;;;;;;;3.83;2.37;;;;;;;;;;5018378;28;20064;-65
2023/01/21 13:02:20;;;;;;;9.03;5.33;;;;;;;;;;5034902;28;20333;-65
2023/01/21 13:05:13;;;;;;;3.60;2.80;;;;;;;;;;5036183;28;20753;-65
2023/01/21 13:07:58;;;;;;;3.03;2.27;;;;;;;;;;5033542;28;20275;-65
2023/01/21 13:10:28;;;;;;;3.63;2.78;;;;;;;;;;5035987;28;20270;-65
2023/01/21 13:13:02;;;;;;;5.40;3.70;;;;;;;;;;5035330;28;20051;-65
2023/01/21 13:15:31;;;;;;;3.53;3.13;;;;;;;;;;5030311;28;20254;-67
2023/01/21 13:18:00;;;;;;;4.73;2.80;;;;;;;;;;5020189;28;20328;-65
2023/01/21 13:20:28;;;;;;;5.53;3.07;;;;;;;;;;5030838;28;20869;-65
2023/01/21 13:23:00;;;;;;;5.63;3.40;;;;;;;;;;5031273;28;20341;-65
2023/01/21 13:25:44;;;;;;;3.07;2.50;;;;;;;;;;5034139;28;20326;-65
2023/01/21 13:28:17;;;;;;;2.47;2.17;;;;;;;;;;5035793;28;20273;-65
2023/01/21 13:31:02;;;;;;;2.80;2.30;;;;;;;;;;5035628;28;20270;-65
2023/01/21 13:33:47;;;;;;;3.47;2.72;;;;;;;;;;5035749;28;20345;-65
2023/01/21 13:36:14;;;;;;;2.47;2.28;;;;;;;;;;5032238;28;20855;-65
2023/01/21 13:38:50;;;;;;;3.47;2.67;;;;;;;;;;5030394;28;20526;-65
2023/01/21 13:41:35;;;;;;;17.90;2.73;;;;;;;;;;5030289;28;20345;-65
2023/01/21 13:44:01;;;;;;;4.90;4.15;;;;;;;;;;5030160;28;20297;-65
2023/01/21 13:46:46;;;;;;;11.70;5.77;;;;;;;;;;5033505;28;20034;-65
2023/01/21 13:49:16;;;;;;;4.78;3.50;;;;;;;;;;5035490;28;20280;-65
2023/01/21 13:51:52;;;;;;;7.23;4.57;;;;;;;;;;5035457;28;20030;-65
2023/01/21 13:54:25;;;;;;;7.97;5.77;;;;;;;;;;5035226;28;20263;-65
2023/01/21 13:57:01;;;;;;;6.40;5.00;;;;;;;;;;5030338;28;20692;-65
2023/01/21 13:59:41;;;;;;;6.97;3.37;;;;;;;;;;5027811;28;20279;-67
2023/01/21 14:02:12;;;;;;;11.73;5.90;;;;;;;;;;5028924;28;20262;-66
2023/01/21 14:04:42;;;;;;;5.50;3.90;;;;;;;;;;5029175;28;20730;-66
2023/01/21 14:07:12;;;;;;;6.90;4.17;;;;;;;;;;5029032;28;20412;-65
2023/01/21 14:09:42;;;;;;;10.30;4.03;;;;;;;;;;5034068;28;20259;-66
2023/01/21 14:12:14;;;;;;;4.97;2.63;;;;;;;;;;5033856;28;20273;-66
2023/01/21 14:14:41;;;;;;;5.60;2.57;;;;;;;;;;5034270;28;20289;-66
2023/01/21 14:17:19;;;;;;;7.93;2.93;;;;;;;;;;5034053;28;20258;-66
2023/01/21 14:19:52;;;;;;;10.00;2.97;;;;;;;;;;5032610;28;20251;-66
2023/01/21 14:22:22;;;;;;;6.83;3.23;;;;;;;;;;5028600;28;20060;-66
2023/01/21 14:25:03;;;;;;;7.83;3.53;;;;;;;;;;5028346;28;20064;-66
2023/01/21 14:27:48;;;;;;;4.17;2.73;;;;;;;;;;5028281;28;20029;-66
2023/01/21 14:30:14;;;;;;;6.75;3.75;;;;;;;;;;5031098;28;20022;-66
2023/01/21 14:32:51;;;;;;;7.17;4.17;;;;;;;;;;5033438;28;20130;-66
2023/01/21 14:35:46;;;;;;;5.37;3.47;;;;;;;;;;5033835;28;20025;-66
2023/01/21 14:38:21;;;;;;;10.27;4.43;;;;;;;;;;5024342;28;20507;-66
2023/01/21 14:40:48;;;;;;;11.90;4.07;;;;;;;;;;5033743;28;20101;-66
2023/01/21 14:43:39;;;;;;;11.67;6.13;;;;;;;;;;5028579;28;20037;-66
2023/01/21 14:46:26;;;;;;;9.30;4.93;;;;;;;;;;5023204;28;20034;-65
2023/01/21 14:48:59;;;;;;;7.83;5.77;;;;;;;;;;5028261;28;20059;-66
2023/01/21 14:51:28;;;;;;;8.10;4.47;;;;;;;;;;5027247;28;20439;-67
2023/01/21 14:54:02;;;;;;;7.43;5.23;;;;;;;;;;5032542;28;20021;-67
2023/01/21 14:56:31;;;;;;;10.83;6.30;;;;;;;;;;5031353;28;20013;-67
2023/01/21 14:58:57;;;;;;;8.03;5.57;;;;;;;;;;5031439;28;20025;-67
2023/01/21 15:01:25;;;;;;;16.73;6.43;;;;;;;;;;5031196;28;20017;-67
2023/01/21 15:03:52;;;;;;;7.70;4.10;;;;;;;;;;5029825;28;20072;-67